createdAt,value
2018-12-12T00:00:28.046Z,2.10
2018-12-12T00:01:02.027Z,2.10
2018-12-12T00:01:35.999Z,2.10
2018-12-12T00:02:09.734Z,2.10
2018-12-12T00:02:43.666Z,2.10
2018-12-12T00:03:17.928Z,2.10
2018-12-12T00:03:51.854Z,2.10
2018-12-12T00:04:25.818Z,2.10
2018-12-12T00:04:59.666Z,2.10
2018-12-12T00:05:33.624Z,2.10
2018-12-12T00:06:07.475Z,2.10
2018-12-12T00:06:41.322Z,2.10
2018-12-12T00:07:15.331Z,2.10
2018-12-12T00:07:49.143Z,2.20
2018-12-12T00:08:23.179Z,2.20
2018-12-12T00:08:57.286Z,2.20
2018-12-12T00:09:31.206Z,2.20
2018-12-12T00:10:07.516Z,2.20
2018-12-12T00:10:41.339Z,2.20
2018-12-12T00:11:15.457Z,2.20
2018-12-12T00:11:49.438Z,2.20
2018-12-12T00:12:23.460Z,2.20
2018-12-12T00:12:57.386Z,2.20
2018-12-12T00:13:31.365Z,2.20
2018-12-12T00:14:05.502Z,2.30
2018-12-12T00:14:39.433Z,2.20
2018-12-12T00:15:14.742Z,2.30
2018-12-12T00:15:49.585Z,2.30
2018-12-12T00:16:23.634Z,2.30
2018-12-12T00:16:57.619Z,2.30
2018-12-12T00:17:31.460Z,2.30
2018-12-12T00:18:05.407Z,2.30
2018-12-12T00:18:39.337Z,2.30
2018-12-12T00:19:13.150Z,2.30
2018-12-12T00:19:47.042Z,2.30
2018-12-12T00:20:20.910Z,2.20
2018-12-12T00:20:54.946Z,2.20
2018-12-12T00:21:28.935Z,2.10
2018-12-12T00:22:03.039Z,2.10
2018-12-12T00:22:37.021Z,2.10
2018-12-12T00:23:10.881Z,2.10
2018-12-12T00:23:44.729Z,2.10
2018-12-12T00:24:18.657Z,2.10
2018-12-12T00:24:52.661Z,2.10
2018-12-12T00:25:26.541Z,2.10
2018-12-12T00:26:00.326Z,2.10
2018-12-12T00:26:34.079Z,2.10
2018-12-12T00:27:07.937Z,2.10
2018-12-12T00:27:42.057Z,2.10
2018-12-12T00:28:15.915Z,2.10
2018-12-12T00:28:49.874Z,2.10
2018-12-12T00:29:23.611Z,2.00
2018-12-12T00:29:57.502Z,2.10
2018-12-12T00:30:31.383Z,2.10
2018-12-12T00:31:05.154Z,2.00
2018-12-12T00:31:39.058Z,2.00
2018-12-12T00:32:13.089Z,2.00
2018-12-12T00:32:51.010Z,2.00
2018-12-12T00:33:24.834Z,2.00
2018-12-12T00:33:58.742Z,2.00
2018-12-12T00:34:32.596Z,1.90
2018-12-12T00:35:06.478Z,2.00
2018-12-12T00:35:41.100Z,2.00
2018-12-12T00:36:15.174Z,2.00
2018-12-12T00:36:48.951Z,2.10
2018-12-12T00:37:22.873Z,2.10
2018-12-12T00:37:56.706Z,2.20
2018-12-12T00:38:30.633Z,2.10
2018-12-12T00:39:07.001Z,2.10
2018-12-12T00:39:40.947Z,2.10
2018-12-12T00:40:14.634Z,2.10
2018-12-12T00:40:48.330Z,2.20
2018-12-12T00:41:22.270Z,2.20
2018-12-12T00:41:56.232Z,2.20
2018-12-12T00:42:30.021Z,2.20
2018-12-12T00:43:03.899Z,2.30
2018-12-12T00:43:37.813Z,2.20
2018-12-12T00:44:11.569Z,2.20
2018-12-12T00:44:45.512Z,2.20
2018-12-12T00:45:19.282Z,2.20
2018-12-12T00:45:53.125Z,2.20
2018-12-12T00:46:26.971Z,2.20
2018-12-12T00:47:00.980Z,2.30
2018-12-12T00:47:34.933Z,2.30
2018-12-12T00:48:08.655Z,2.30
2018-12-12T00:48:42.581Z,2.30
2018-12-12T00:49:16.693Z,2.30
2018-12-12T00:49:50.727Z,2.30
2018-12-12T00:50:24.724Z,2.40
2018-12-12T00:50:58.724Z,2.40
2018-12-12T00:51:33.038Z,2.40
2018-12-12T00:52:13.993Z,2.40
2018-12-12T00:52:48.122Z,2.40
2018-12-12T00:53:21.960Z,2.40
2018-12-12T00:53:55.830Z,2.50
2018-12-12T00:54:30.284Z,2.50
2018-12-12T00:55:04.196Z,2.50
2018-12-12T00:55:38.110Z,2.40
2018-12-12T00:56:11.818Z,2.40
2018-12-12T00:56:45.992Z,2.50
2018-12-12T00:57:21.201Z,2.40
2018-12-12T00:57:54.977Z,2.40
2018-12-12T00:58:28.915Z,2.50
2018-12-12T00:59:03.282Z,2.50
2018-12-12T00:59:37.393Z,2.50
2018-12-12T01:00:11.646Z,2.50
2018-12-12T01:00:45.811Z,2.50
2018-12-12T01:01:19.730Z,2.50
2018-12-12T01:01:54.441Z,2.50
2018-12-12T01:02:28.354Z,2.50
2018-12-12T01:03:02.482Z,2.50
2018-12-12T01:03:36.550Z,2.50
2018-12-12T01:04:10.635Z,2.50
2018-12-12T01:04:45.206Z,2.50
2018-12-12T01:05:19.570Z,2.50
2018-12-12T01:05:53.271Z,2.50
2018-12-12T01:06:27.168Z,2.50
2018-12-12T01:07:01.721Z,2.50
2018-12-12T01:07:36.649Z,2.50
2018-12-12T01:08:11.366Z,2.50
2018-12-12T01:08:45.598Z,2.50
2018-12-12T01:09:19.510Z,2.50
2018-12-12T01:09:53.390Z,2.50
2018-12-12T01:10:27.175Z,2.50
2018-12-12T01:11:07.318Z,2.50
2018-12-12T01:11:47.328Z,2.50
2018-12-12T01:12:21.267Z,2.50
2018-12-12T01:12:55.272Z,2.40
2018-12-12T01:13:29.200Z,2.40
2018-12-12T01:14:03.160Z,2.40
2018-12-12T01:14:37.142Z,2.40
2018-12-12T01:15:11.174Z,2.30
2018-12-12T01:15:45.135Z,2.30
2018-12-12T01:16:18.899Z,2.30
2018-12-12T01:16:53.519Z,2.30
2018-12-12T01:17:27.609Z,2.30
2018-12-12T01:18:01.538Z,2.30
2018-12-12T01:18:35.469Z,2.30
2018-12-12T01:19:09.388Z,2.30
2018-12-12T01:19:43.946Z,2.30
2018-12-12T01:21:01.326Z,2.20
2018-12-12T01:21:36.058Z,2.30
2018-12-12T01:22:09.947Z,2.20
2018-12-12T01:22:43.890Z,2.20
2018-12-12T01:23:17.884Z,2.20
2018-12-12T01:23:52.599Z,2.20
2018-12-12T01:24:26.635Z,2.10
2018-12-12T01:25:00.562Z,2.10
2018-12-12T01:25:34.304Z,2.20
2018-12-12T01:26:08.178Z,2.20
2018-12-12T01:26:42.535Z,2.20
2018-12-12T01:27:16.994Z,2.20
2018-12-12T01:27:50.963Z,2.20
2018-12-12T01:28:24.844Z,2.20
2018-12-12T01:28:58.942Z,2.20
2018-12-12T01:29:32.879Z,2.20
2018-12-12T01:30:06.774Z,2.20
2018-12-12T01:30:40.840Z,2.20
2018-12-12T01:31:14.906Z,2.20
2018-12-12T01:31:48.743Z,2.20
2018-12-12T01:32:22.623Z,2.20
2018-12-12T01:32:56.507Z,2.20
2018-12-12T01:33:30.381Z,2.20
2018-12-12T01:34:04.328Z,2.20
2018-12-12T01:34:38.239Z,2.20
2018-12-12T01:35:12.198Z,2.20
2018-12-12T01:35:46.275Z,2.20
2018-12-12T01:36:20.041Z,2.20
2018-12-12T01:36:54.152Z,2.10
2018-12-12T01:37:28.151Z,2.10
2018-12-12T01:38:02.075Z,2.10
2018-12-12T01:38:36.142Z,2.10
2018-12-12T01:39:10.298Z,2.10
2018-12-12T01:39:44.370Z,2.10
2018-12-12T01:40:18.415Z,2.00
2018-12-12T01:40:52.878Z,2.00
2018-12-12T01:41:26.857Z,2.00
2018-12-12T01:42:03.522Z,2.00
2018-12-12T01:42:37.430Z,2.00
2018-12-12T01:43:18.297Z,2.00
2018-12-12T01:43:52.823Z,2.00
2018-12-12T01:44:26.802Z,2.00
2018-12-12T01:45:00.606Z,2.00
2018-12-12T01:45:34.585Z,2.00
2018-12-12T01:46:15.722Z,2.00
2018-12-12T01:46:49.757Z,2.00
2018-12-12T01:47:23.637Z,2.00
2018-12-12T01:48:00.504Z,2.00
2018-12-12T01:48:34.510Z,2.00
2018-12-12T01:49:08.344Z,1.90
2018-12-12T01:49:42.339Z,2.00
2018-12-12T01:50:16.767Z,1.90
2018-12-12T01:50:50.648Z,1.90
2018-12-12T01:51:25.177Z,1.90
2018-12-12T01:51:59.162Z,1.90
2018-12-12T01:52:33.302Z,1.90
2018-12-12T01:53:07.310Z,1.80
2018-12-12T01:53:41.333Z,1.70
2018-12-12T01:54:15.343Z,1.70
2018-12-12T01:54:49.222Z,1.80
2018-12-12T01:55:23.035Z,1.80
2018-12-12T01:55:56.946Z,1.80
2018-12-12T01:56:30.838Z,1.80
2018-12-12T01:57:04.841Z,1.90
2018-12-12T01:57:38.946Z,1.80
2018-12-12T01:58:12.994Z,1.80
2018-12-12T01:58:47.331Z,1.80
2018-12-12T01:59:21.244Z,1.80
2018-12-12T01:59:55.778Z,1.80
2018-12-12T02:00:29.644Z,1.80
2018-12-12T02:01:03.639Z,1.80
2018-12-12T02:01:37.904Z,1.80
2018-12-12T02:02:11.857Z,1.80
2018-12-12T02:02:45.634Z,1.80
2018-12-12T02:03:19.555Z,1.80
2018-12-12T02:03:53.601Z,1.80
2018-12-12T02:04:27.500Z,1.80
2018-12-12T02:05:01.295Z,1.80
2018-12-12T02:05:35.042Z,1.70
2018-12-12T02:06:09.103Z,1.70
2018-12-12T02:06:43.748Z,1.60
2018-12-12T02:07:17.953Z,1.70
2018-12-12T02:07:52.034Z,1.60
2018-12-12T02:08:26.247Z,1.60
2018-12-12T02:09:00.233Z,1.70
2018-12-12T02:09:34.128Z,1.70
2018-12-12T02:10:08.037Z,1.60
2018-12-12T02:10:42.037Z,1.70
2018-12-12T02:11:15.864Z,1.60
2018-12-12T02:11:49.769Z,1.60
2018-12-12T02:12:23.462Z,1.60
2018-12-12T02:13:09.028Z,1.60
2018-12-12T02:13:43.483Z,1.60
2018-12-12T02:14:17.353Z,1.60
2018-12-12T02:14:51.255Z,1.60
2018-12-12T02:15:25.183Z,1.60
2018-12-12T02:15:59.946Z,1.60
2018-12-12T02:16:34.231Z,1.60
2018-12-12T02:17:09.073Z,1.60
2018-12-12T02:17:43.257Z,1.60
2018-12-12T02:18:17.348Z,1.60
2018-12-12T02:18:51.093Z,1.50
2018-12-12T02:19:25.201Z,1.60
2018-12-12T02:19:59.475Z,1.60
2018-12-12T02:20:33.722Z,1.60
2018-12-12T02:21:07.919Z,1.60
2018-12-12T02:21:42.450Z,1.60
2018-12-12T02:22:16.576Z,1.50
2018-12-12T02:22:51.318Z,1.50
2018-12-12T02:23:25.154Z,1.50
2018-12-12T02:23:59.200Z,1.50
2018-12-12T02:24:33.606Z,1.50
2018-12-12T02:25:07.488Z,1.50
2018-12-12T02:25:41.422Z,1.50
2018-12-12T02:26:15.337Z,1.50
2018-12-12T02:26:49.171Z,1.50
2018-12-12T02:27:23.193Z,1.50
2018-12-12T02:27:57.098Z,1.50
2018-12-12T02:28:31.097Z,1.50
2018-12-12T02:29:05.082Z,1.50
2018-12-12T02:29:39.060Z,1.40
2018-12-12T02:30:13.123Z,1.50
2018-12-12T02:30:47.155Z,1.50
2018-12-12T02:31:21.382Z,1.50
2018-12-12T02:31:55.214Z,1.50
2018-12-12T02:32:29.032Z,1.50
2018-12-12T02:33:02.982Z,1.50
2018-12-12T02:33:36.869Z,1.50
2018-12-12T02:34:11.008Z,1.50
2018-12-12T02:34:44.724Z,1.50
2018-12-12T02:35:18.645Z,1.50
2018-12-12T02:35:52.387Z,1.50
2018-12-12T02:36:26.329Z,1.50
2018-12-12T02:37:00.133Z,1.50
2018-12-12T02:37:34.041Z,1.50
2018-12-12T02:38:07.925Z,1.50
2018-12-12T02:38:41.754Z,1.50
2018-12-12T02:39:15.652Z,1.50
2018-12-12T02:39:49.481Z,1.40
2018-12-12T02:40:23.513Z,1.40
2018-12-12T02:40:57.523Z,1.40
2018-12-12T02:41:31.426Z,1.50
2018-12-12T02:42:05.318Z,1.50
2018-12-12T02:42:39.327Z,1.50
2018-12-12T02:43:13.329Z,1.50
2018-12-12T02:43:47.577Z,1.50
2018-12-12T02:44:21.498Z,1.50
2018-12-12T02:44:55.533Z,1.50
2018-12-12T02:45:29.476Z,1.60
2018-12-12T02:46:03.194Z,1.60
2018-12-12T02:46:37.178Z,1.60
2018-12-12T02:47:11.249Z,1.60
2018-12-12T02:47:46.023Z,1.70
2018-12-12T02:48:19.861Z,1.70
2018-12-12T02:48:54.006Z,1.70
2018-12-12T02:49:27.816Z,1.70
2018-12-12T02:50:08.722Z,1.70
2018-12-12T02:50:42.738Z,1.70
2018-12-12T02:51:16.725Z,1.70
2018-12-12T02:51:50.620Z,1.80
2018-12-12T02:52:24.514Z,1.70
2018-12-12T02:52:58.306Z,1.70
2018-12-12T02:53:32.238Z,1.80
2018-12-12T02:54:06.503Z,1.80
2018-12-12T02:54:40.274Z,1.80
2018-12-12T02:55:14.274Z,1.80
2018-12-12T02:55:48.192Z,1.80
2018-12-12T02:56:21.931Z,1.80
2018-12-12T02:56:55.761Z,1.80
2018-12-12T02:57:29.559Z,1.80
2018-12-12T02:58:03.438Z,1.80
2018-12-12T02:58:37.390Z,1.80
2018-12-12T02:59:11.331Z,1.80
2018-12-12T02:59:45.275Z,1.80
2018-12-12T03:00:19.079Z,1.80
2018-12-12T03:00:52.982Z,1.80
2018-12-12T03:01:26.781Z,1.80
2018-12-12T03:02:00.679Z,1.80
2018-12-12T03:02:34.512Z,1.80
2018-12-12T03:03:08.379Z,1.80
2018-12-12T03:03:42.200Z,1.80
2018-12-12T03:04:16.133Z,1.80
2018-12-12T03:04:50.196Z,1.80
2018-12-12T03:05:24.176Z,1.80
2018-12-12T03:05:58.096Z,1.80
2018-12-12T03:06:32.122Z,1.80
2018-12-12T03:07:06.215Z,1.80
2018-12-12T03:07:40.029Z,1.80
2018-12-12T03:08:14.052Z,1.90
2018-12-12T03:08:47.871Z,1.90
2018-12-12T03:09:21.855Z,1.80
2018-12-12T03:09:55.790Z,1.80
2018-12-12T03:10:29.646Z,1.90
2018-12-12T03:11:03.522Z,1.80
2018-12-12T03:11:37.413Z,1.90
2018-12-12T03:12:11.290Z,1.90
2018-12-12T03:12:45.137Z,1.90
2018-12-12T03:13:18.909Z,1.90
2018-12-12T03:13:53.287Z,1.90
2018-12-12T03:14:27.042Z,1.90
2018-12-12T03:15:00.933Z,1.90
2018-12-12T03:15:34.895Z,1.80
2018-12-12T03:16:08.741Z,1.90
2018-12-12T03:16:42.575Z,1.90
2018-12-12T03:17:16.462Z,1.90
2018-12-12T03:17:50.477Z,2.00
2018-12-12T03:18:24.427Z,2.00
2018-12-12T03:18:58.257Z,1.90
2018-12-12T03:19:32.111Z,1.90
2018-12-12T03:20:06.133Z,2.00
2018-12-12T03:20:40.085Z,1.90
2018-12-12T03:21:13.790Z,1.90
2018-12-12T03:21:47.713Z,2.00
2018-12-12T03:22:21.664Z,2.00
2018-12-12T03:22:55.502Z,2.00
2018-12-12T03:23:29.447Z,2.00
2018-12-12T03:24:03.358Z,2.00
2018-12-12T03:24:37.217Z,2.00
2018-12-12T03:25:11.155Z,2.00
2018-12-12T03:25:45.258Z,2.00
2018-12-12T03:26:20.881Z,2.00
2018-12-12T03:26:54.804Z,2.00
2018-12-12T03:27:28.795Z,2.00
2018-12-12T03:28:02.707Z,2.00
2018-12-12T03:28:36.657Z,2.10
2018-12-12T03:29:10.427Z,2.10
2018-12-12T03:29:44.258Z,2.10
2018-12-12T03:30:18.223Z,2.10
2018-12-12T03:30:52.343Z,2.10
2018-12-12T03:31:26.179Z,2.10
2018-12-12T03:32:00.137Z,2.10
2018-12-12T03:32:34.036Z,2.10
2018-12-12T03:33:07.914Z,2.10
2018-12-12T03:33:41.967Z,2.10
2018-12-12T03:34:15.872Z,2.10
2018-12-12T03:34:49.787Z,2.10
2018-12-12T03:35:23.770Z,2.20
2018-12-12T03:35:57.694Z,2.20
2018-12-12T03:36:31.642Z,2.20
2018-12-12T03:37:05.593Z,2.20
2018-12-12T03:37:40.066Z,2.20
2018-12-12T03:38:14.845Z,2.20
2018-12-12T03:38:48.726Z,2.20
2018-12-12T03:39:22.973Z,2.20
2018-12-12T03:39:58.129Z,2.30
2018-12-12T03:40:32.515Z,2.30
2018-12-12T03:41:06.463Z,2.30
2018-12-12T03:41:40.308Z,2.30
2018-12-12T03:42:14.118Z,2.30
2018-12-12T03:42:48.223Z,2.40
2018-12-12T03:43:22.239Z,2.40
2018-12-12T03:43:56.096Z,2.40
2018-12-12T03:44:30.110Z,2.40
2018-12-12T03:45:04.565Z,2.40
2018-12-12T03:45:38.304Z,2.40
2018-12-12T03:46:12.375Z,2.40
2018-12-12T03:46:46.417Z,2.40
2018-12-12T03:47:20.427Z,2.40
2018-12-12T03:47:54.477Z,2.40
2018-12-12T03:48:28.384Z,2.40
2018-12-12T03:49:02.362Z,2.40
2018-12-12T03:49:36.133Z,2.40
2018-12-12T03:50:10.178Z,2.40
2018-12-12T03:50:44.037Z,2.40
2018-12-12T03:51:17.987Z,2.40
2018-12-12T03:51:52.160Z,2.50
2018-12-12T03:52:26.146Z,2.50
2018-12-12T03:53:01.120Z,2.50
2018-12-12T03:53:35.154Z,2.50
2018-12-12T03:54:08.999Z,2.50
2018-12-12T03:54:42.866Z,2.50
2018-12-12T03:55:16.622Z,2.50
2018-12-12T03:55:50.475Z,2.50
2018-12-12T03:56:24.589Z,2.50
2018-12-12T03:56:58.552Z,2.50
2018-12-12T03:57:32.261Z,2.50
2018-12-12T03:58:06.123Z,2.50
2018-12-12T03:58:40.125Z,2.50
2018-12-12T03:59:14.327Z,2.50
2018-12-12T03:59:48.303Z,2.60
2018-12-12T04:00:24.142Z,2.60
2018-12-12T04:00:58.175Z,2.60
2018-12-12T04:01:32.073Z,2.60
2018-12-12T04:02:12.901Z,2.60
2018-12-12T04:02:46.667Z,2.60
2018-12-12T04:03:20.803Z,2.60
2018-12-12T04:03:54.933Z,2.60
2018-12-12T04:04:28.706Z,2.60
2018-12-12T04:05:03.138Z,2.60
2018-12-12T04:05:37.027Z,2.60
2018-12-12T04:06:10.970Z,2.60
2018-12-12T04:06:44.777Z,2.60
2018-12-12T04:07:18.761Z,2.60
2018-12-12T04:07:52.650Z,2.60
2018-12-12T04:08:26.709Z,2.60
2018-12-12T04:09:00.550Z,2.70
2018-12-12T04:09:34.451Z,2.70
2018-12-12T04:10:08.351Z,2.70
2018-12-12T04:10:42.281Z,2.60
2018-12-12T04:11:19.272Z,2.60
2018-12-12T04:11:53.230Z,2.60
2018-12-12T04:12:27.193Z,2.60
2018-12-12T04:13:01.080Z,2.60
2018-12-12T04:13:34.993Z,2.70
2018-12-12T04:14:08.836Z,2.70
2018-12-12T04:14:42.696Z,2.70
2018-12-12T04:15:16.631Z,2.70
2018-12-12T04:15:50.858Z,2.80
2018-12-12T04:16:24.938Z,2.70
2018-12-12T04:16:58.915Z,2.80
2018-12-12T04:17:32.755Z,2.80
2018-12-12T04:18:06.598Z,2.80
2018-12-12T04:18:40.537Z,2.80
2018-12-12T04:19:14.505Z,2.80
2018-12-12T04:19:48.407Z,2.80
2018-12-12T04:20:22.342Z,2.80
2018-12-12T04:20:56.161Z,2.80
2018-12-12T04:21:30.375Z,2.80
2018-12-12T04:22:04.336Z,2.80
2018-12-12T04:22:38.127Z,2.80
2018-12-12T04:23:11.942Z,2.80
2018-12-12T04:23:45.914Z,2.90
2018-12-12T04:24:20.081Z,2.80
2018-12-12T04:24:54.067Z,2.90
2018-12-12T04:25:28.006Z,2.80
2018-12-12T04:26:01.849Z,2.90
2018-12-12T04:26:35.823Z,2.90
2018-12-12T04:27:09.771Z,2.90
2018-12-12T04:27:43.726Z,2.90
2018-12-12T04:28:17.678Z,2.90
2018-12-12T04:28:51.465Z,2.90
2018-12-12T04:29:25.365Z,2.90
2018-12-12T04:29:59.194Z,2.90
2018-12-12T04:30:33.046Z,2.90
2018-12-12T04:31:07.171Z,2.90
2018-12-12T04:31:41.077Z,2.90
2018-12-12T04:32:14.975Z,2.90
2018-12-12T04:32:49.732Z,2.80
2018-12-12T04:33:23.739Z,2.80
2018-12-12T04:33:57.924Z,2.90
2018-12-12T04:34:32.167Z,2.90
2018-12-12T04:35:06.193Z,2.90
2018-12-12T04:35:40.607Z,2.90
2018-12-12T04:36:14.406Z,2.90
2018-12-12T04:36:48.413Z,2.90
2018-12-12T04:37:22.363Z,2.90
2018-12-12T04:38:00.124Z,2.90
2018-12-12T04:38:34.136Z,3.00
2018-12-12T04:39:08.868Z,3.00
2018-12-12T04:39:43.020Z,3.00
2018-12-12T04:40:17.222Z,3.00
2018-12-12T04:40:51.319Z,3.00
2018-12-12T04:41:25.294Z,3.00
2018-12-12T04:41:59.436Z,3.00
2018-12-12T04:42:33.298Z,3.00
2018-12-12T04:43:07.642Z,3.00
2018-12-12T04:43:42.371Z,3.00
2018-12-12T04:44:16.521Z,3.00
2018-12-12T04:44:50.359Z,3.00
2018-12-12T04:45:24.331Z,3.00
2018-12-12T04:45:58.536Z,2.90
2018-12-12T04:46:32.753Z,2.90
2018-12-12T04:47:06.689Z,3.00
2018-12-12T04:47:40.707Z,2.90
2018-12-12T04:48:14.850Z,3.00
2018-12-12T04:48:48.854Z,3.00
2018-12-12T04:49:22.718Z,3.00
2018-12-12T04:49:56.672Z,3.00
2018-12-12T04:50:30.564Z,3.00
2018-12-12T04:51:04.368Z,3.00
2018-12-12T04:51:38.176Z,3.00
2018-12-12T04:52:12.084Z,3.00
2018-12-12T04:52:46.008Z,3.00
2018-12-12T04:53:19.726Z,3.00
2018-12-12T04:53:53.701Z,3.00
2018-12-12T04:54:27.642Z,3.00
2018-12-12T04:55:02.054Z,3.00
2018-12-12T04:55:36.006Z,3.00
2018-12-12T04:56:09.922Z,3.00
2018-12-12T04:56:44.358Z,3.00
2018-12-12T04:57:18.334Z,3.10
2018-12-12T04:57:52.722Z,3.10
2018-12-12T04:58:26.653Z,3.00
2018-12-12T04:59:00.604Z,3.10
2018-12-12T04:59:34.662Z,3.10
2018-12-12T05:00:11.716Z,3.10
2018-12-12T05:00:45.637Z,3.10
2018-12-12T05:01:19.407Z,3.10
2018-12-12T05:01:54.508Z,3.10
2018-12-12T05:02:28.337Z,3.10
2018-12-12T05:03:02.228Z,3.10
2018-12-12T05:03:36.784Z,3.10
2018-12-12T05:04:10.738Z,3.10
2018-12-12T05:04:44.868Z,3.10
2018-12-12T05:05:18.942Z,3.10
2018-12-12T05:05:53.442Z,3.10
2018-12-12T05:06:27.462Z,3.10
2018-12-12T05:07:01.335Z,3.10
2018-12-12T05:07:35.283Z,3.10
2018-12-12T05:08:09.204Z,3.10
2018-12-12T05:08:43.285Z,3.10
2018-12-12T05:09:17.264Z,3.10
2018-12-12T05:09:51.221Z,3.10
2018-12-12T05:10:25.102Z,3.10
2018-12-12T05:10:59.301Z,3.10
2018-12-12T05:11:33.134Z,3.10
2018-12-12T05:12:06.963Z,3.10
2018-12-12T05:12:40.952Z,3.10
2018-12-12T05:13:15.216Z,3.10
2018-12-12T05:13:49.571Z,3.10
2018-12-12T05:14:23.518Z,3.10
2018-12-12T05:14:57.286Z,3.10
2018-12-12T05:15:31.567Z,3.10
2018-12-12T05:16:05.341Z,3.10
2018-12-12T05:16:39.338Z,3.10
2018-12-12T05:17:13.360Z,3.10
2018-12-12T05:17:47.578Z,3.10
2018-12-12T05:18:21.575Z,3.10
2018-12-12T05:18:55.611Z,3.10
2018-12-12T05:19:30.015Z,3.10
2018-12-12T05:20:04.250Z,3.00
2018-12-12T05:20:38.142Z,3.10
2018-12-12T05:21:12.079Z,3.10
2018-12-12T05:21:46.043Z,3.10
2018-12-12T05:22:20.041Z,3.10
2018-12-12T05:22:54.189Z,3.10
2018-12-12T05:23:28.190Z,3.10
2018-12-12T05:24:02.086Z,3.10
2018-12-12T05:24:36.273Z,3.10
2018-12-12T05:25:10.313Z,3.10
2018-12-12T05:25:44.043Z,3.10
2018-12-12T05:26:18.132Z,3.10
2018-12-12T05:26:52.066Z,3.10
2018-12-12T05:27:26.443Z,3.10
2018-12-12T05:28:01.382Z,3.10
2018-12-12T05:28:35.858Z,3.10
2018-12-12T05:29:23.855Z,3.10
2018-12-12T05:29:57.695Z,3.10
2018-12-12T05:30:32.082Z,3.10
2018-12-12T05:31:06.217Z,3.10
2018-12-12T05:31:40.762Z,3.10
2018-12-12T05:32:14.475Z,3.10
2018-12-12T05:32:48.363Z,3.10
2018-12-12T05:33:22.191Z,3.10
2018-12-12T05:33:56.275Z,3.10
2018-12-12T05:34:30.352Z,3.10
2018-12-12T05:35:04.803Z,3.10
2018-12-12T05:35:38.760Z,3.10
2018-12-12T05:36:13.015Z,3.00
2018-12-12T05:36:48.981Z,3.00
2018-12-12T05:37:22.801Z,2.90
2018-12-12T05:37:56.760Z,2.90
2018-12-12T05:38:30.588Z,3.00
2018-12-12T05:39:06.661Z,2.90
2018-12-12T05:39:40.605Z,3.00
2018-12-12T05:40:14.951Z,3.00
2018-12-12T05:40:48.749Z,3.00
2018-12-12T05:41:22.711Z,2.90
2018-12-12T05:41:57.306Z,2.90
2018-12-12T05:42:31.503Z,2.90
2018-12-12T05:43:05.277Z,2.90
2018-12-12T05:43:39.308Z,2.90
2018-12-12T05:44:13.322Z,2.90
2018-12-12T05:44:47.423Z,2.90
2018-12-12T05:45:21.443Z,2.90
2018-12-12T05:45:55.611Z,2.90
2018-12-12T05:46:29.543Z,2.90
2018-12-12T05:47:03.444Z,2.90
2018-12-12T05:47:37.741Z,2.90
2018-12-12T05:48:11.587Z,2.90
2018-12-12T05:48:45.623Z,2.90
2018-12-12T05:49:19.411Z,2.80
2018-12-12T05:49:53.391Z,2.80
2018-12-12T05:50:27.511Z,2.80
2018-12-12T05:51:01.498Z,2.80
2018-12-12T05:51:35.351Z,2.80
2018-12-12T05:52:09.135Z,2.80
2018-12-12T05:52:43.113Z,2.70
2018-12-12T05:53:17.034Z,2.70
2018-12-12T05:53:51.582Z,2.70
2018-12-12T05:54:25.595Z,2.70
2018-12-12T05:55:00.208Z,2.70
2018-12-12T05:55:34.114Z,2.70
2018-12-12T05:56:13.930Z,2.70
2018-12-12T05:56:43.982Z,2.70
2018-12-12T05:57:17.834Z,2.70
2018-12-12T05:57:51.780Z,2.70
2018-12-12T05:58:25.625Z,2.60
2018-12-12T05:58:59.850Z,2.60
2018-12-12T05:59:33.810Z,2.60
2018-12-12T06:00:08.826Z,2.60
2018-12-12T06:00:42.740Z,2.60
2018-12-12T06:01:16.673Z,2.60
2018-12-12T06:01:50.705Z,2.60
2018-12-12T06:02:24.431Z,2.60
2018-12-12T06:02:58.216Z,2.60
2018-12-12T06:03:33.722Z,2.60
2018-12-12T06:04:08.015Z,2.60
2018-12-12T06:04:41.744Z,2.60
2018-12-12T06:05:15.578Z,2.50
2018-12-12T06:05:49.448Z,2.50
2018-12-12T06:06:23.350Z,2.50
2018-12-12T06:06:57.353Z,2.40
2018-12-12T06:07:31.198Z,2.50
2018-12-12T06:08:05.222Z,2.50
2018-12-12T06:08:39.015Z,2.50
2018-12-12T06:09:12.899Z,2.50
2018-12-12T06:09:46.873Z,2.50
2018-12-12T06:10:20.705Z,2.40
2018-12-12T06:10:54.661Z,2.40
2018-12-12T06:11:28.389Z,2.40
2018-12-12T06:12:02.734Z,2.40
2018-12-12T06:12:36.681Z,2.50
2018-12-12T06:13:10.487Z,2.40
2018-12-12T06:13:44.350Z,2.40
2018-12-12T06:14:18.307Z,2.40
2018-12-12T06:14:52.219Z,2.30
2018-12-12T06:15:25.951Z,2.30
2018-12-12T06:15:59.773Z,2.30
2018-12-12T06:16:33.665Z,2.30
2018-12-12T06:17:07.842Z,2.30
2018-12-12T06:17:41.763Z,2.30
2018-12-12T06:18:15.564Z,2.30
2018-12-12T06:18:49.225Z,2.30
2018-12-12T06:19:23.278Z,2.30
2018-12-12T06:19:57.298Z,2.30
2018-12-12T06:20:31.130Z,2.20
2018-12-12T06:21:05.221Z,2.30
2018-12-12T06:21:39.326Z,2.20
2018-12-12T06:22:13.262Z,2.20
2018-12-12T06:22:47.108Z,2.20
2018-12-12T06:23:21.009Z,2.20
2018-12-12T06:23:54.958Z,2.20
2018-12-12T06:24:28.870Z,2.20
2018-12-12T06:25:02.921Z,2.20
2018-12-12T06:25:36.914Z,2.20
2018-12-12T06:26:10.525Z,2.20
2018-12-12T06:26:44.387Z,2.20
2018-12-12T06:27:18.425Z,2.20
2018-12-12T06:27:52.129Z,2.20
2018-12-12T06:28:26.071Z,2.20
2018-12-12T06:28:59.966Z,2.20
2018-12-12T06:29:33.985Z,2.10
2018-12-12T06:30:08.647Z,2.10
2018-12-12T06:30:42.616Z,2.10
2018-12-12T06:31:16.406Z,2.10
2018-12-12T06:31:50.520Z,2.10
2018-12-12T06:32:25.022Z,2.10
2018-12-12T06:32:59.619Z,2.10
2018-12-12T06:33:34.370Z,2.10
2018-12-12T06:34:08.310Z,2.10
2018-12-12T06:34:42.290Z,2.10
2018-12-12T06:35:16.950Z,2.00
2018-12-12T06:35:50.938Z,2.00
2018-12-12T06:36:24.871Z,2.00
2018-12-12T06:36:58.750Z,2.00
2018-12-12T06:37:32.742Z,2.00
2018-12-12T06:38:06.725Z,2.00
2018-12-12T06:38:40.627Z,2.00
2018-12-12T06:39:17.808Z,2.00
2018-12-12T06:39:52.760Z,2.00
2018-12-12T06:41:07.593Z,2.00
2018-12-12T06:41:42.186Z,2.00
2018-12-12T06:42:17.105Z,2.00
2018-12-12T06:42:51.188Z,2.00
2018-12-12T06:43:27.778Z,1.90
2018-12-12T06:44:02.678Z,1.90
2018-12-12T06:44:36.939Z,1.90
2018-12-12T06:45:10.930Z,1.90
2018-12-12T06:45:46.367Z,2.00
2018-12-12T06:46:20.368Z,2.00
2018-12-12T06:46:54.411Z,2.00
2018-12-12T06:47:28.292Z,2.00
2018-12-12T06:48:02.645Z,1.90
2018-12-12T06:48:37.615Z,2.00
2018-12-12T06:49:11.712Z,1.90
2018-12-12T06:49:45.801Z,1.90
2018-12-12T06:50:19.702Z,1.90
2018-12-12T06:50:54.410Z,1.90
2018-12-12T06:51:28.302Z,1.90
2018-12-12T06:52:02.321Z,1.90
2018-12-12T06:52:36.275Z,1.90
2018-12-12T06:53:09.935Z,1.90
2018-12-12T06:53:44.278Z,1.90
2018-12-12T06:54:17.864Z,1.90
2018-12-12T06:54:51.907Z,1.90
2018-12-12T06:55:25.783Z,1.90
2018-12-12T06:55:59.785Z,1.90
2018-12-12T06:56:34.332Z,1.80
2018-12-12T06:57:08.206Z,1.90
2018-12-12T06:57:42.649Z,1.90
2018-12-12T06:58:16.641Z,1.90
2018-12-12T06:58:50.555Z,1.90
2018-12-12T06:59:24.584Z,1.90
2018-12-12T06:59:59.113Z,1.90
2018-12-12T07:00:33.098Z,1.90
2018-12-12T07:01:07.275Z,1.90
2018-12-12T07:01:41.297Z,1.80
2018-12-12T07:02:15.069Z,1.90
2018-12-12T07:02:49.006Z,1.80
2018-12-12T07:03:23.096Z,1.90
2018-12-12T07:03:56.869Z,1.80
2018-12-12T07:04:30.952Z,1.90
2018-12-12T07:05:05.550Z,1.90
2018-12-12T07:05:39.831Z,1.90
2018-12-12T07:06:13.773Z,1.90
2018-12-12T07:06:48.103Z,1.90
2018-12-12T07:07:22.107Z,1.80
2018-12-12T07:07:56.098Z,1.90
2018-12-12T07:08:30.043Z,1.90
2018-12-12T07:09:08.398Z,1.90
2018-12-12T07:09:42.356Z,1.90
2018-12-12T07:10:16.543Z,1.90
2018-12-12T07:10:50.208Z,1.90
2018-12-12T07:11:24.185Z,1.90
2018-12-12T07:11:58.553Z,1.80
2018-12-12T07:12:32.589Z,1.90
2018-12-12T07:13:06.832Z,1.90
2018-12-12T07:13:40.894Z,1.90
2018-12-12T07:14:15.257Z,1.90
2018-12-12T07:14:49.291Z,1.90
2018-12-12T07:15:23.199Z,1.90
2018-12-12T07:15:58.172Z,1.90
2018-12-12T07:16:32.067Z,1.90
2018-12-12T07:17:05.910Z,1.90
2018-12-12T07:17:40.066Z,1.90
2018-12-12T07:18:13.948Z,1.80
2018-12-12T07:18:48.278Z,1.90
2018-12-12T07:19:22.299Z,1.90
2018-12-12T07:19:56.226Z,1.90
2018-12-12T07:20:30.282Z,1.90
2018-12-12T07:21:04.734Z,1.90
2018-12-12T07:21:38.864Z,1.90
2018-12-12T07:22:13.562Z,2.00
2018-12-12T07:22:47.399Z,1.90
2018-12-12T07:23:22.766Z,2.00
2018-12-12T07:23:56.722Z,2.00
2018-12-12T07:24:31.321Z,2.00
2018-12-12T07:25:05.271Z,2.00
2018-12-12T07:25:39.121Z,2.00
2018-12-12T07:26:13.158Z,2.00
2018-12-12T07:26:47.250Z,2.00
2018-12-12T07:27:21.909Z,2.00
2018-12-12T07:27:56.595Z,2.00
2018-12-12T07:28:31.103Z,2.00
2018-12-12T07:29:05.402Z,2.00
2018-12-12T07:29:39.367Z,2.00
2018-12-12T07:30:13.502Z,2.00
2018-12-12T07:30:47.630Z,2.00
2018-12-12T07:31:21.482Z,2.00
2018-12-12T07:31:55.515Z,2.00
2018-12-12T07:32:29.545Z,2.00
2018-12-12T07:33:03.561Z,2.10
2018-12-12T07:33:37.479Z,2.00
2018-12-12T07:34:11.549Z,2.10
2018-12-12T07:34:45.542Z,2.10
2018-12-12T07:35:19.295Z,2.10
2018-12-12T07:35:59.318Z,2.10
2018-12-12T07:36:29.687Z,2.10